Las Cruces, NM

11:25 AM MDT on September 27, 2016 (GMT -0600)
HADS | | Change Station

Elev 4324 ft 32.61 °N, 106.74 °W | Updated 2 hours ago

Overcast
Overcast
59.0 °F
Feels Like 59.0 °F
N
0.0
Wind Variable Wind from North
Gusts 0.0 mph

Today
High -- | Low -- °F
--% Chance of Precip.
Yesterday
High -- | Low -- °F
Precip. -- in
Pressure 30.30 in
Visibility 10.0 miles
Clouds Overcast 5500 ft
Dew Point 56.0 °F
Humidity 89%
Rainfall in
Snow Depth Not available.
6:58 AM 6:56 PM
Waning Crescent, 10% visible
METAR KLRU 271715Z AUTO 00000KT 10SM OVC055 16/08 A3030 RMK AO2 T01610084
Pressure 30.30 in
Visibility 10.0 miles
Clouds Overcast 5500 ft
Dew Point 56.0 °F
Humidity 89%
Rainfall in
Snow Depth Not available.
6:58 AM 6:56 PM
Waning Crescent, 10% visible
METAR KLRU 271715Z AUTO 00000KT 10SM OVC055 16/08 A3030 RMK AO2 T01610084

10-Day Weather Forecast

Almanac

Astronomy

Sep. 27, 2016 Rise Set
Actual Time
Civil Twilight
Nautical Twilight
Astronomical Twilight
Moon
Length of Visible Light
Length of Day
Tomorrow will be .
, % of the Moon is Illuminated

Today's Extremes

State Highs State Lows

Community

WunderPhotos

Upload Photos

1,942,134 photos uploaded!

WunderBlog® & News

Nearby

Air Quality

  Air Quality AQ Index Pollutant
Not available.

Snow Depth

Station Depth Elevation

Earthquake Activity

City Distance Mag. Time & Date
Minimum magnitude displayed is 2.5.

Coastal Water Temperatures

Place Temperature

Stations

Nearby Weather Stations

Station Location Temp. Windchill Dew Point Humidity Wind Precip. Elev Updated Type
                   

Watches & Warnings

There are currently no watches in effect.